Time;durP1;ratioP1;P1;durP2;ratioP2;P2;SDS_P1;SDS_P2;PMS_P1;PMS_P2;Temp;Humidity;BMP_temperature;BMP_pressure;BME280_temperature;BME280_humidity;BME280_pressure;Samples;Min_cycle;Max_cycle;Signal;HPM_P1;HPM_P2
2021/12/27 00:00:09;;;;;;;5.87;4.50;;;;;;;;;;5067853;28;20191;-56
2021/12/27 00:02:35;;;;;;;4.33;3.63;;;;;;;;;;5087141;28;20184;-56
2021/12/27 00:05:02;;;;;;;6.50;4.40;;;;;;;;;;5068756;28;20183;-56
2021/12/27 00:07:28;;;;;;;5.43;4.27;;;;;;;;;;5086798;28;20229;-56
2021/12/27 00:09:54;;;;;;;5.57;4.70;;;;;;;;;;5085366;28;20204;-55
2021/12/27 00:12:21;;;;;;;5.37;4.73;;;;;;;;;;5084397;28;20179;-55
2021/12/27 00:14:47;;;;;;;6.70;4.73;;;;;;;;;;5047608;28;20218;-56
2021/12/27 00:17:13;;;;;;;5.63;4.53;;;;;;;;;;5086949;28;20241;-56
2021/12/27 00:19:39;;;;;;;4.70;4.03;;;;;;;;;;5086895;28;20547;-56
2021/12/27 00:22:06;;;;;;;6.00;4.93;;;;;;;;;;5086369;28;20219;-56
2021/12/27 00:24:32;;;;;;;5.30;4.23;;;;;;;;;;5069197;28;20222;-56
2021/12/27 00:26:58;;;;;;;6.03;4.80;;;;;;;;;;5078061;28;20228;-55
2021/12/27 00:29:24;;;;;;;6.77;4.67;;;;;;;;;;5086420;28;20199;-56
2021/12/27 00:31:53;;;;;;;5.50;4.90;;;;;;;;;;5086956;28;20175;-56
2021/12/27 00:34:20;;;;;;;5.37;4.63;;;;;;;;;;5067845;28;20206;-56
2021/12/27 00:36:46;;;;;;;6.50;5.03;;;;;;;;;;5052086;28;20199;-56
2021/12/27 00:39:12;;;;;;;5.70;4.60;;;;;;;;;;5082501;28;20175;-56
2021/12/27 00:41:38;;;;;;;6.57;4.77;;;;;;;;;;5085717;28;20207;-56
2021/12/27 00:44:05;;;;;;;5.73;4.73;;;;;;;;;;5085583;28;20215;-56
2021/12/27 00:46:31;;;;;;;5.87;5.00;;;;;;;;;;5065753;28;20191;-56
2021/12/27 00:48:58;;;;;;;5.73;4.77;;;;;;;;;;5062507;28;20616;-58
2021/12/27 00:51:24;;;;;;;6.20;4.87;;;;;;;;;;5067934;28;20265;-56
2021/12/27 00:53:50;;;;;;;4.83;4.33;;;;;;;;;;5066159;28;20172;-56
2021/12/27 00:56:16;;;;;;;5.87;4.60;;;;;;;;;;5047482;28;20200;-56
2021/12/27 00:58:42;;;;;;;6.30;5.00;;;;;;;;;;5043703;28;20184;-56
2021/12/27 01:01:09;;;;;;;5.13;4.57;;;;;;;;;;5064830;28;20238;-56
2021/12/27 01:03:35;;;;;;;6.10;4.83;;;;;;;;;;5041851;28;20188;-56
2021/12/27 01:06:02;;;;;;;6.50;5.27;;;;;;;;;;5048478;28;20321;-56
2021/12/27 01:08:28;;;;;;;5.23;4.47;;;;;;;;;;5048612;28;20204;-56
2021/12/27 01:11:12;;;;;;;5.70;4.83;;;;;;;;;;5066370;28;20552;-56
2021/12/27 01:13:44;;;;;;;5.83;4.43;;;;;;;;;;5066306;28;20176;-56
2021/12/27 01:16:12;;;;;;;5.50;4.90;;;;;;;;;;5048356;28;20177;-56
2021/12/27 01:18:40;;;;;;;7.27;4.63;;;;;;;;;;5047239;28;20184;-56
2021/12/27 01:21:06;;;;;;;5.17;4.67;;;;;;;;;;5045654;28;20189;-56
2021/12/27 01:23:33;;;;;;;5.70;5.00;;;;;;;;;;5045052;28;20184;-56
2021/12/27 01:25:59;;;;;;;5.27;4.70;;;;;;;;;;5067082;28;20191;-56
2021/12/27 01:28:26;;;;;;;5.67;4.80;;;;;;;;;;5066539;28;20291;-56
2021/12/27 01:30:52;;;;;;;5.10;4.60;;;;;;;;;;5048330;28;20184;-56
2021/12/27 01:33:23;;;;;;;5.60;3.83;;;;;;;;;;5063883;28;20180;-55
2021/12/27 01:35:50;;;;;;;5.57;4.73;;;;;;;;;;5047682;28;20180;-56
2021/12/27 01:38:17;;;;;;;6.33;5.13;;;;;;;;;;5043914;28;20200;-56
2021/12/27 01:40:44;;;;;;;5.33;4.37;;;;;;;;;;5046584;28;20682;-61
2021/12/27 01:43:14;;;;;;;5.63;4.27;;;;;;;;;;5054114;28;20198;-56
2021/12/27 01:46:06;;;;;;;5.70;5.10;;;;;;;;;;5037494;28;20191;-56
2021/12/27 01:48:37;;;;;;;5.67;5.00;;;;;;;;;;5010070;28;20220;-56
2021/12/27 01:51:05;;;;;;;5.63;5.03;;;;;;;;;;5065858;28;20177;-57
2021/12/27 01:53:34;;;;;;;5.70;5.10;;;;;;;;;;5073553;28;20184;-56
2021/12/27 01:56:04;;;;;;;6.57;5.03;;;;;;;;;;5050919;28;20672;-56
2021/12/27 01:58:31;;;;;;;5.50;4.90;;;;;;;;;;5047848;28;20192;-56
2021/12/27 02:00:58;;;;;;;5.77;4.87;;;;;;;;;;5053935;28;20234;-56
2021/12/27 02:03:27;;;;;;;5.93;5.20;;;;;;;;;;5046637;28;20181;-56
2021/12/27 02:05:54;;;;;;;5.57;4.97;;;;;;;;;;5057774;28;20428;-56
2021/12/27 02:08:20;;;;;;;5.77;5.13;;;;;;;;;;5038213;28;20196;-56
2021/12/27 02:10:46;;;;;;;5.27;4.50;;;;;;;;;;5047277;28;20182;-55
2021/12/27 02:13:12;;;;;;;5.20;4.70;;;;;;;;;;5068064;28;20512;-55
2021/12/27 02:15:42;;;;;;;6.50;4.90;;;;;;;;;;5068229;28;20667;-56
2021/12/27 02:18:11;;;;;;;5.20;4.30;;;;;;;;;;5062266;28;20463;-56
2021/12/27 02:20:42;;;;;;;5.53;4.20;;;;;;;;;;5068193;28;20201;-56
2021/12/27 02:23:14;;;;;;;5.47;4.60;;;;;;;;;;5050436;28;20173;-56
2021/12/27 02:25:42;;;;;;;5.67;4.90;;;;;;;;;;5051148;28;20585;-56
2021/12/27 02:28:09;;;;;;;6.07;5.37;;;;;;;;;;5065024;28;20257;-56
2021/12/27 02:30:35;;;;;;;5.47;4.80;;;;;;;;;;5050218;28;20627;-55
2021/12/27 02:33:05;;;;;;;5.20;4.70;;;;;;;;;;5068069;28;20176;-56
2021/12/27 02:35:37;;;;;;;5.50;4.40;;;;;;;;;;5060123;28;20215;-56
2021/12/27 02:38:04;;;;;;;5.90;5.17;;;;;;;;;;5050265;28;20458;-56
2021/12/27 02:40:31;;;;;;;5.97;4.83;;;;;;;;;;5050895;28;20260;-56
2021/12/27 02:42:59;;;;;;;5.43;4.93;;;;;;;;;;5069396;28;20684;-56
2021/12/27 02:45:28;;;;;;;5.30;4.77;;;;;;;;;;5049287;28;20813;-56
2021/12/27 02:47:54;;;;;;;5.97;5.17;;;;;;;;;;5044706;28;20522;-56
2021/12/27 02:50:21;;;;;;;6.23;5.43;;;;;;;;;;5033940;28;20184;-56
2021/12/27 02:52:47;;;;;;;5.17;4.60;;;;;;;;;;5084167;28;20219;-57
2021/12/27 02:55:15;;;;;;;5.43;4.43;;;;;;;;;;5087896;28;20171;-56
2021/12/27 02:57:41;;;;;;;5.57;4.47;;;;;;;;;;5070692;28;20210;-56
2021/12/27 03:00:11;;;;;;;5.20;4.23;;;;;;;;;;5087594;28;20424;-56
2021/12/27 03:02:38;;;;;;;6.70;5.50;;;;;;;;;;5087686;28;20164;-56
2021/12/27 03:05:04;;;;;;;6.00;4.63;;;;;;;;;;5069120;28;20853;-56
2021/12/27 03:07:30;;;;;;;5.73;4.83;;;;;;;;;;5073279;28;20208;-56
2021/12/27 03:09:58;;;;;;;5.60;4.80;;;;;;;;;;5087711;28;20590;-56
2021/12/27 03:12:24;;;;;;;5.73;4.63;;;;;;;;;;5070968;28;20437;-57
2021/12/27 03:14:51;;;;;;;5.73;4.80;;;;;;;;;;5086449;28;20180;-56
2021/12/27 03:17:17;;;;;;;5.33;4.83;;;;;;;;;;5088507;28;20262;-57
2021/12/27 03:19:43;;;;;;;7.10;5.20;;;;;;;;;;5053265;28;20648;-56
2021/12/27 03:22:09;;;;;;;4.90;4.40;;;;;;;;;;5071181;28;20187;-56
2021/12/27 03:24:36;;;;;;;6.00;4.97;;;;;;;;;;5068230;28;20265;-56
2021/12/27 03:27:02;;;;;;;6.00;4.70;;;;;;;;;;5090433;28;20180;-56
2021/12/27 03:29:34;;;;;;;4.67;4.27;;;;;;;;;;5085727;28;20195;-57
2021/12/27 03:32:02;;;;;;;5.27;4.30;;;;;;;;;;5086521;28;20186;-56
2021/12/27 03:34:32;;;;;;;5.10;4.37;;;;;;;;;;5069409;28;20180;-57
2021/12/27 03:36:58;;;;;;;5.67;4.67;;;;;;;;;;5087835;28;20180;-57
2021/12/27 03:39:24;;;;;;;6.13;4.93;;;;;;;;;;5068363;28;20183;-57
2021/12/27 03:41:51;;;;;;;5.53;5.00;;;;;;;;;;5070003;28;20191;-57
2021/12/27 03:44:17;;;;;;;5.90;5.30;;;;;;;;;;5068155;28;20278;-57
2021/12/27 03:46:43;;;;;;;5.33;4.77;;;;;;;;;;5085560;28;20180;-56
2021/12/27 03:49:10;;;;;;;7.00;5.10;;;;;;;;;;5072589;28;20204;-56
2021/12/27 03:51:36;;;;;;;5.50;4.90;;;;;;;;;;5063585;28;20212;-57
2021/12/27 03:54:02;;;;;;;5.77;4.97;;;;;;;;;;5050075;28;20177;-56
2021/12/27 03:56:28;;;;;;;4.90;4.40;;;;;;;;;;5049477;28;20202;-56
2021/12/27 03:58:58;;;;;;;6.90;4.73;;;;;;;;;;5048883;28;20212;-56
2021/12/27 04:01:26;;;;;;;6.20;5.20;;;;;;;;;;5055363;28;20184;-56
2021/12/27 04:03:54;;;;;;;4.37;3.97;;;;;;;;;;5061916;28;20180;-57
2021/12/27 04:06:21;;;;;;;6.37;5.23;;;;;;;;;;5061966;28;20180;-56
2021/12/27 04:08:48;;;;;;;6.23;5.27;;;;;;;;;;5065286;28;20828;-56
2021/12/27 04:11:17;;;;;;;5.60;4.77;;;;;;;;;;5067155;28;20606;-55
2021/12/27 04:13:47;;;;;;;5.97;4.63;;;;;;;;;;5049512;28;20718;-57
2021/12/27 04:16:13;;;;;;;6.13;4.77;;;;;;;;;;5049838;28;20180;-57
2021/12/27 04:18:39;;;;;;;5.63;4.53;;;;;;;;;;5043322;28;20238;-56
2021/12/27 04:21:05;;;;;;;5.13;4.60;;;;;;;;;;5067718;28;20189;-56
2021/12/27 04:23:34;;;;;;;5.37;4.20;;;;;;;;;;5066855;28;20183;-56
2021/12/27 04:26:00;;;;;;;6.37;4.87;;;;;;;;;;5049339;28;20192;-57
2021/12/27 04:28:27;;;;;;;6.00;4.50;;;;;;;;;;5049134;28;20566;-57
2021/12/27 04:30:53;;;;;;;5.77;4.80;;;;;;;;;;5048132;28;20628;-56
2021/12/27 04:33:19;;;;;;;4.80;4.30;;;;;;;;;;5062757;28;20234;-57
2021/12/27 04:35:45;;;;;;;5.90;5.07;;;;;;;;;;5066726;28;20262;-56
2021/12/27 04:38:11;;;;;;;6.33;4.50;;;;;;;;;;5066694;28;20646;-57
2021/12/27 04:40:39;;;;;;;5.10;4.40;;;;;;;;;;5048338;28;20186;-56
2021/12/27 04:43:08;;;;;;;5.03;4.13;;;;;;;;;;5060775;28;20188;-56
2021/12/27 04:45:34;;;;;;;6.27;5.10;;;;;;;;;;5048490;28;20666;-57
2021/12/27 04:48:01;;;;;;;6.40;4.83;;;;;;;;;;5031707;28;20180;-56
2021/12/27 04:50:28;;;;;;;5.60;4.70;;;;;;;;;;5066814;28;20219;-57
2021/12/27 04:52:54;;;;;;;5.80;5.17;;;;;;;;;;5066964;28;20219;-57
2021/12/27 04:55:21;;;;;;;5.53;4.07;;;;;;;;;;5087380;28;20552;-57
2021/12/27 04:57:48;;;;;;;6.17;4.63;;;;;;;;;;5051504;28;20690;-55
2021/12/27 05:00:14;;;;;;;5.43;4.53;;;;;;;;;;5085745;28;20274;-56
2021/12/27 05:02:41;;;;;;;6.10;4.70;;;;;;;;;;5085083;28;20179;-56
2021/12/27 05:05:07;;;;;;;6.30;4.90;;;;;;;;;;5086981;28;20203;-56
2021/12/27 05:07:34;;;;;;;5.83;4.30;;;;;;;;;;5067959;28;20380;-56
2021/12/27 05:10:00;;;;;;;4.20;3.70;;;;;;;;;;5084434;28;20195;-56
2021/12/27 05:12:26;;;;;;;5.00;4.33;;;;;;;;;;5084119;28;20203;-56
2021/12/27 05:14:52;;;;;;;5.13;4.50;;;;;;;;;;5065461;28;20289;-56
2021/12/27 05:17:19;;;;;;;5.60;5.07;;;;;;;;;;5062787;28;20172;-56
2021/12/27 05:19:45;;;;;;;4.93;4.20;;;;;;;;;;5063902;28;20259;-56
2021/12/27 05:22:11;;;;;;;5.20;4.07;;;;;;;;;;5050778;28;20548;-56
2021/12/27 05:24:38;;;;;;;4.57;4.07;;;;;;;;;;5084832;28;20286;-57
2021/12/27 05:27:04;;;;;;;5.10;4.50;;;;;;;;;;5086645;28;20215;-56
2021/12/27 05:29:30;;;;;;;5.50;4.70;;;;;;;;;;5067164;28;20195;-56
2021/12/27 05:32:01;;;;;;;5.57;4.57;;;;;;;;;;5085579;28;20691;-56
2021/12/27 05:34:28;;;;;;;5.70;4.30;;;;;;;;;;5067889;28;20186;-56
2021/12/27 05:36:54;;;;;;;5.70;4.23;;;;;;;;;;5086807;28;20249;-56
2021/12/27 05:39:22;;;;;;;4.30;3.90;;;;;;;;;;5100859;28;20270;-56
2021/12/27 05:41:48;;;;;;;4.33;3.93;;;;;;;;;;5086507;28;20437;-56
2021/12/27 05:44:15;;;;;;;5.17;4.20;;;;;;;;;;5083851;28;20180;-56
2021/12/27 05:46:41;;;;;;;4.43;3.97;;;;;;;;;;5099993;28;20181;-56
2021/12/27 05:49:07;;;;;;;4.77;4.27;;;;;;;;;;5066042;28;20812;-56
2021/12/27 05:51:36;;;;;;;5.13;4.50;;;;;;;;;;5072165;28;20280;-56
2021/12/27 05:54:03;;;;;;;6.30;4.43;;;;;;;;;;5087047;28;20203;-56
2021/12/27 05:56:29;;;;;;;5.47;4.50;;;;;;;;;;5088329;28;20524;-56
2021/12/27 05:58:55;;;;;;;4.87;4.37;;;;;;;;;;5084818;28;20683;-56
2021/12/27 06:01:22;;;;;;;5.47;4.40;;;;;;;;;;5088663;28;20596;-56
2021/12/27 06:03:48;;;;;;;5.23;4.23;;;;;;;;;;5071014;28;20180;-56
2021/12/27 06:06:15;;;;;;;5.13;4.03;;;;;;;;;;5079880;28;20187;-56
2021/12/27 06:08:42;;;;;;;4.97;4.47;;;;;;;;;;5071034;28;20690;-56
2021/12/27 06:11:08;;;;;;;5.53;4.67;;;;;;;;;;5104390;28;20168;-56
2021/12/27 06:13:35;;;;;;;5.27;4.20;;;;;;;;;;5071397;28;20241;-56
2021/12/27 06:16:01;;;;;;;4.10;3.63;;;;;;;;;;5107129;28;20177;-56
2021/12/27 06:18:27;;;;;;;5.40;4.33;;;;;;;;;;5096993;28;20211;-57
2021/12/27 06:20:53;;;;;;;4.23;3.83;;;;;;;;;;5089459;28;20261;-56
2021/12/27 06:23:19;;;;;;;4.37;3.97;;;;;;;;;;5080591;28;20226;-57
2021/12/27 06:25:46;;;;;;;5.37;4.33;;;;;;;;;;5072128;28;20667;-57
2021/12/27 06:28:16;;;;;;;4.67;3.87;;;;;;;;;;5088663;28;20553;-56
2021/12/27 06:30:46;;;;;;;4.87;4.40;;;;;;;;;;5089880;28;20618;-56
2021/12/27 06:33:12;;;;;;;4.47;3.60;;;;;;;;;;5071182;28;20233;-57
2021/12/27 06:35:38;;;;;;;4.60;4.10;;;;;;;;;;5088460;28;20207;-58
2021/12/27 06:38:05;;;;;;;4.80;4.23;;;;;;;;;;5071137;28;20689;-57
2021/12/27 06:40:31;;;;;;;4.40;3.97;;;;;;;;;;5089626;28;20188;-56
2021/12/27 06:42:58;;;;;;;4.77;4.27;;;;;;;;;;5071571;28;20172;-56
2021/12/27 06:45:25;;;;;;;4.10;3.70;;;;;;;;;;5088974;28;20176;-57
2021/12/27 06:47:52;;;;;;;4.57;3.97;;;;;;;;;;5060623;28;20206;-56
2021/12/27 06:50:18;;;;;;;5.03;4.53;;;;;;;;;;5086580;28;20340;-56
2021/12/27 06:52:44;;;;;;;5.07;4.20;;;;;;;;;;5074159;28;20225;-57
2021/12/27 06:55:11;;;;;;;4.33;3.90;;;;;;;;;;5074041;28;20176;-57
2021/12/27 06:57:37;;;;;;;4.43;4.03;;;;;;;;;;5082273;28;20206;-56
2021/12/27 07:00:08;;;;;;;4.70;4.20;;;;;;;;;;5085410;28;20219;-57
2021/12/27 07:02:34;;;;;;;5.37;4.63;;;;;;;;;;5082395;28;20492;-57
2021/12/27 07:05:01;;;;;;;5.13;4.60;;;;;;;;;;5052566;28;20192;-57
2021/12/27 07:07:27;;;;;;;4.50;4.10;;;;;;;;;;5073340;28;20276;-57
2021/12/27 07:09:54;;;;;;;5.00;4.50;;;;;;;;;;5056763;28;20208;-56
2021/12/27 07:12:23;;;;;;;4.17;3.70;;;;;;;;;;5083499;28;20179;-57
2021/12/27 07:14:50;;;;;;;4.37;3.97;;;;;;;;;;5068568;28;20176;-57
2021/12/27 07:17:16;;;;;;;5.03;4.17;;;;;;;;;;5047763;28;20181;-57
2021/12/27 07:19:43;;;;;;;4.97;4.47;;;;;;;;;;5068798;28;20194;-56
2021/12/27 07:22:09;;;;;;;4.53;3.90;;;;;;;;;;5052532;28;20643;-57
2021/12/27 07:24:35;;;;;;;4.07;3.60;;;;;;;;;;5060704;28;20639;-56
2021/12/27 07:27:01;;;;;;;4.67;3.80;;;;;;;;;;5068251;28;20208;-57
2021/12/27 07:29:28;;;;;;;4.37;3.80;;;;;;;;;;5074388;28;20199;-57
2021/12/27 07:31:54;;;;;;;5.03;4.53;;;;;;;;;;5061126;28;20180;-57
2021/12/27 07:34:24;;;;;;;5.23;4.10;;;;;;;;;;5071035;28;20648;-58
2021/12/27 07:36:51;;;;;;;4.07;3.57;;;;;;;;;;5062672;28;20176;-57
2021/12/27 07:39:18;;;;;;;4.87;3.87;;;;;;;;;;5056677;28;20184;-56
2021/12/27 07:41:47;;;;;;;5.50;4.23;;;;;;;;;;5075771;28;20180;-56
2021/12/27 07:44:14;;;;;;;5.00;4.17;;;;;;;;;;5066369;28;20520;-56
2021/12/27 07:46:41;;;;;;;4.47;3.57;;;;;;;;;;5051563;28;20640;-57
2021/12/27 07:49:08;;;;;;;4.23;3.83;;;;;;;;;;5054918;28;20688;-58
2021/12/27 07:51:35;;;;;;;5.83;4.43;;;;;;;;;;5072790;28;20316;-57
2021/12/27 07:54:02;;;;;;;4.93;4.20;;;;;;;;;;5069682;28;20196;-57
2021/12/27 07:56:28;;;;;;;4.77;4.37;;;;;;;;;;5074121;28;20256;-57
2021/12/27 07:58:54;;;;;;;6.77;4.13;;;;;;;;;;5057750;28;20201;-57
2021/12/27 08:01:20;;;;;;;4.60;3.63;;;;;;;;;;5067008;28;20195;-57
2021/12/27 08:03:47;;;;;;;4.73;4.20;;;;;;;;;;5066061;28;20559;-57
2021/12/27 08:06:13;;;;;;;4.73;3.97;;;;;;;;;;5065915;28;20191;-58
2021/12/27 08:08:39;;;;;;;4.17;3.67;;;;;;;;;;5065504;28;20266;-57
2021/12/27 08:11:06;;;;;;;5.93;3.90;;;;;;;;;;5066351;28;20546;-58
2021/12/27 08:13:33;;;;;;;5.37;4.23;;;;;;;;;;5065252;28;20188;-57
2021/12/27 08:16:00;;;;;;;5.17;4.67;;;;;;;;;;5065943;28;20191;-56
2021/12/27 08:18:26;;;;;;;4.17;3.77;;;;;;;;;;5066600;28;20659;-56
2021/12/27 08:20:53;;;;;;;5.77;3.87;;;;;;;;;;5066241;28;20181;-57
2021/12/27 08:23:19;;;;;;;4.40;4.00;;;;;;;;;;5056860;28;20177;-57
2021/12/27 08:25:46;;;;;;;4.80;3.90;;;;;;;;;;5044300;28;20259;-57
2021/12/27 08:28:12;;;;;;;4.30;3.77;;;;;;;;;;5064930;28;20198;-57
2021/12/27 08:30:39;;;;;;;6.70;3.97;;;;;;;;;;5064316;28;20168;-56
2021/12/27 08:33:05;;;;;;;6.00;4.50;;;;;;;;;;5059524;28;20191;-57
2021/12/27 08:35:31;;;;;;;4.47;3.70;;;;;;;;;;5056490;28;20219;-56
2021/12/27 08:38:01;;;;;;;4.60;4.13;;;;;;;;;;5060449;28;20181;-57
2021/12/27 08:40:27;;;;;;;5.73;3.90;;;;;;;;;;5065998;28;20177;-57
2021/12/27 08:42:54;;;;;;;5.07;3.93;;;;;;;;;;5061552;28;20271;-58
2021/12/27 08:45:20;;;;;;;5.27;4.20;;;;;;;;;;5064549;28;20173;-58
2021/12/27 08:47:47;;;;;;;6.70;4.27;;;;;;;;;;5047248;28;20193;-57
2021/12/27 08:50:17;;;;;;;4.97;4.27;;;;;;;;;;5052809;28;20573;-57
2021/12/27 08:52:44;;;;;;;5.87;4.53;;;;;;;;;;5061537;28;20294;-55
2021/12/27 08:55:10;;;;;;;5.10;4.13;;;;;;;;;;5066378;28;20183;-56
2021/12/27 08:57:37;;;;;;;4.80;4.13;;;;;;;;;;5062052;28;20690;-55
2021/12/27 09:00:06;;;;;;;6.50;4.93;;;;;;;;;;5049913;28;20700;-57
2021/12/27 09:02:32;;;;;;;4.50;4.10;;;;;;;;;;5066212;28;20180;-57
2021/12/27 09:04:58;;;;;;;4.87;3.97;;;;;;;;;;5067760;28;20667;-56
2021/12/27 09:07:24;;;;;;;5.10;4.20;;;;;;;;;;5050073;28;20184;-55
2021/12/27 09:09:51;;;;;;;4.60;3.80;;;;;;;;;;5062916;28;20226;-56
2021/12/27 09:12:17;;;;;;;4.57;3.90;;;;;;;;;;5039392;28;20181;-56
2021/12/27 09:14:44;;;;;;;4.97;4.30;;;;;;;;;;5049128;28;20199;-56
2021/12/27 09:17:10;;;;;;;5.27;3.97;;;;;;;;;;5052743;28;20184;-56
2021/12/27 09:19:37;;;;;;;4.33;3.87;;;;;;;;;;5062175;28;20356;-57
2021/12/27 09:22:03;;;;;;;4.30;3.80;;;;;;;;;;5077611;28;20180;-56
2021/12/27 09:24:31;;;;;;;3.70;3.40;;;;;;;;;;5051290;28;20203;-56
2021/12/27 09:26:58;;;;;;;4.30;3.50;;;;;;;;;;5068530;28;20526;-56
2021/12/27 09:29:24;;;;;;;3.47;3.17;;;;;;;;;;5069927;28;20242;-56
2021/12/27 09:31:51;;;;;;;4.67;3.70;;;;;;;;;;5053779;28;20180;-55
2021/12/27 09:34:18;;;;;;;4.63;3.83;;;;;;;;;;5042452;28;20184;-56
2021/12/27 09:36:44;;;;;;;8.03;3.43;;;;;;;;;;5066762;28;20217;-57
2021/12/27 09:39:10;;;;;;;4.47;3.67;;;;;;;;;;5069042;28;20180;-57
2021/12/27 09:41:37;;;;;;;4.30;3.63;;;;;;;;;;5045893;28;20538;-57
2021/12/27 09:44:04;;;;;;;4.10;3.70;;;;;;;;;;5047217;28;20173;-56
2021/12/27 09:46:31;;;;;;;4.43;3.97;;;;;;;;;;5063584;28;20187;-56
2021/12/27 09:48:58;;;;;;;5.40;3.90;;;;;;;;;;5028577;28;20192;-56
2021/12/27 09:51:26;;;;;;;3.67;3.17;;;;;;;;;;5065347;28;20223;-56
2021/12/27 09:53:53;;;;;;;3.97;3.57;;;;;;;;;;5046582;28;20188;-58
2021/12/27 09:56:19;;;;;;;4.50;3.70;;;;;;;;;;5043789;28;20208;-57
2021/12/27 09:58:46;;;;;;;4.30;3.70;;;;;;;;;;5063189;28;20207;-57
2021/12/27 10:01:12;;;;;;;3.93;3.50;;;;;;;;;;5046356;28;20263;-56
2021/12/27 10:03:46;;;;;;;4.33;3.57;;;;;;;;;;5047068;28;20181;-56
2021/12/27 10:06:13;;;;;;;4.20;3.60;;;;;;;;;;5045928;28;20181;-55
2021/12/27 10:08:39;;;;;;;4.13;3.73;;;;;;;;;;5063217;28;20720;-55
2021/12/27 10:11:05;;;;;;;5.37;3.43;;;;;;;;;;5064448;28;20261;-56
2021/12/27 10:13:31;;;;;;;4.80;3.77;;;;;;;;;;5047152;28;20180;-56
2021/12/27 10:15:58;;;;;;;3.87;3.30;;;;;;;;;;5064672;28;20207;-56
2021/12/27 10:18:24;;;;;;;3.90;3.30;;;;;;;;;;5064249;28;20530;-57
2021/12/27 10:20:50;;;;;;;5.63;3.03;;;;;;;;;;5025374;28;20235;-57
2021/12/27 10:23:20;;;;;;;4.43;3.67;;;;;;;;;;5050161;28;20180;-56
2021/12/27 10:25:49;;;;;;;3.93;3.27;;;;;;;;;;5064459;28;20176;-57
2021/12/27 10:28:15;;;;;;;4.10;3.23;;;;;;;;;;5045735;28;20168;-58
2021/12/27 10:30:46;;;;;;;4.03;3.30;;;;;;;;;;5036386;28;20271;-56
2021/12/27 10:33:13;;;;;;;4.63;3.37;;;;;;;;;;5065604;28;20165;-57
2021/12/27 10:35:40;;;;;;;5.20;3.73;;;;;;;;;;5066921;28;20172;-57
2021/12/27 10:38:17;;;;;;;3.80;2.97;;;;;;;;;;5070457;28;20180;-56
2021/12/27 10:40:51;;;;;;;4.40;3.50;;;;;;;;;;5050022;28;20685;-56
2021/12/27 10:43:18;;;;;;;4.20;3.73;;;;;;;;;;5049832;28;20267;-56
2021/12/27 10:45:50;;;;;;;3.60;3.27;;;;;;;;;;5048771;28;20203;-56
2021/12/27 10:48:22;;;;;;;4.23;3.20;;;;;;;;;;5038833;28;20635;-56
2021/12/27 10:50:49;;;;;;;4.80;3.37;;;;;;;;;;5047730;28;20669;-57
2021/12/27 10:53:16;;;;;;;4.97;3.30;;;;;;;;;;5060046;28;20219;-57
2021/12/27 10:55:48;;;;;;;4.27;3.60;;;;;;;;;;5068248;28;20613;-56
2021/12/27 10:58:20;;;;;;;3.77;3.03;;;;;;;;;;5077533;28;20185;-56
2021/12/27 11:00:48;;;;;;;3.23;2.93;;;;;;;;;;5057918;28;20173;-55
2021/12/27 11:03:31;;;;;;;4.10;3.33;;;;;;;;;;5064783;28;20173;-56
2021/12/27 11:05:58;;;;;;;3.63;2.93;;;;;;;;;;5067424;28;20182;-56
2021/12/27 11:08:26;;;;;;;3.97;3.40;;;;;;;;;;5067740;28;20239;-57
2021/12/27 11:10:53;;;;;;;3.73;2.87;;;;;;;;;;5067585;28;20694;-56
2021/12/27 11:13:19;;;;;;;5.57;3.33;;;;;;;;;;5067229;28;20199;-57
2021/12/27 11:15:46;;;;;;;3.80;3.23;;;;;;;;;;5068417;28;20635;-56
2021/12/27 11:18:15;;;;;;;3.43;3.00;;;;;;;;;;5065191;28;20172;-57
2021/12/27 11:20:46;;;;;;;3.23;2.87;;;;;;;;;;5084459;28;20192;-56
2021/12/27 11:23:13;;;;;;;3.27;2.97;;;;;;;;;;5064461;28;20180;-57
2021/12/27 11:25:40;;;;;;;4.00;3.23;;;;;;;;;;5066677;28;20187;-56
2021/12/27 11:28:07;;;;;;;4.33;3.30;;;;;;;;;;5061412;28;20215;-56
2021/12/27 11:30:34;;;;;;;3.13;2.60;;;;;;;;;;5063052;28;20192;-57
2021/12/27 11:33:02;;;;;;;2.97;2.60;;;;;;;;;;5064151;28;20180;-57
2021/12/27 11:36:01;;;;;;;4.30;3.03;;;;;;;;;;5060619;28;20182;-57
2021/12/27 11:38:30;;;;;;;3.60;2.60;;;;;;;;;;5061723;28;20503;-56
2021/12/27 11:40:57;;;;;;;4.07;2.97;;;;;;;;;;5060224;28;20181;-55
2021/12/27 11:43:23;;;;;;;3.83;3.13;;;;;;;;;;5060196;28;20173;-57
2021/12/27 11:45:54;;;;;;;3.80;2.70;;;;;;;;;;5054321;28;20279;-56
2021/12/27 11:48:25;;;;;;;3.17;2.47;;;;;;;;;;5058667;28;20580;-57
2021/12/27 11:50:58;;;;;;;3.10;2.73;;;;;;;;;;5056649;28;20183;-56
2021/12/27 11:53:47;;;;;;;5.03;2.70;;;;;;;;;;5073712;28;20316;-56
2021/12/27 11:56:36;;;;;;;3.20;2.83;;;;;;;;;;5086663;28;20200;-56
2021/12/27 11:59:23;;;;;;;3.73;2.40;;;;;;;;;;5074507;28;20184;-56
2021/12/27 12:01:50;;;;;;;4.33;2.40;;;;;;;;;;5067603;28;20178;-56
2021/12/27 12:04:36;;;;;;;2.67;2.40;;;;;;;;;;5070368;28;20215;-57
2021/12/27 12:07:05;;;;;;;3.53;2.73;;;;;;;;;;5068119;28;20190;-56
2021/12/27 12:09:31;;;;;;;6.17;3.43;;;;;;;;;;5066966;28;20195;-56
2021/12/27 12:12:02;;;;;;;3.00;2.60;;;;;;;;;;5074017;28;20266;-56
2021/12/27 12:14:28;;;;;;;3.37;2.70;;;;;;;;;;5092886;28;20179;-56
2021/12/27 12:16:55;;;;;;;3.70;3.37;;;;;;;;;;5085987;28;20547;-57
2021/12/27 12:19:35;;;;;;;3.20;2.83;;;;;;;;;;5095096;28;20655;-57
2021/12/27 12:22:01;;;;;;;3.10;2.60;;;;;;;;;;5087592;28;20179;-57
2021/12/27 12:24:27;;;;;;;2.93;2.63;;;;;;;;;;5067237;28;20183;-57
2021/12/27 12:26:57;;;;;;;2.50;2.30;;;;;;;;;;5081959;28;20763;-56
2021/12/27 12:29:24;;;;;;;3.47;2.57;;;;;;;;;;5081543;28;20283;-56
2021/12/27 12:31:56;;;;;;;2.43;2.23;;;;;;;;;;5079079;28;20176;-57
2021/12/27 12:34:22;;;;;;;2.87;2.33;;;;;;;;;;5068566;28;20919;-57
2021/12/27 12:36:55;;;;;;;2.93;2.63;;;;;;;;;;5077789;28;20535;-58
2021/12/27 12:39:22;;;;;;;2.77;2.20;;;;;;;;;;5069534;28;20168;-57
2021/12/27 12:41:49;;;;;;;2.67;2.47;;;;;;;;;;5069242;28;20180;-55
2021/12/27 12:44:17;;;;;;;2.47;2.20;;;;;;;;;;5071491;28;20266;-55
2021/12/27 12:46:46;;;;;;;2.90;2.60;;;;;;;;;;5093266;28;20286;-55
2021/12/27 12:49:19;;;;;;;2.40;2.20;;;;;;;;;;5094437;28;20194;-55
2021/12/27 12:51:49;;;;;;;2.90;2.53;;;;;;;;;;5083393;28;20215;-55
2021/12/27 12:54:26;;;;;;;4.23;2.67;;;;;;;;;;5071041;28;20171;-54
2021/12/27 12:57:03;;;;;;;3.10;2.80;;;;;;;;;;5068768;28;20694;-55
2021/12/27 12:59:34;;;;;;;3.10;2.80;;;;;;;;;;5052821;28;20188;-56
2021/12/27 13:02:01;;;;;;;2.60;2.40;;;;;;;;;;5065766;28;20219;-55
2021/12/27 13:04:43;;;;;;;2.30;1.87;;;;;;;;;;5051228;28;20699;-56
2021/12/27 13:07:09;;;;;;;2.43;2.07;;;;;;;;;;5053166;28;20269;-56
2021/12/27 13:09:46;;;;;;;3.20;2.73;;;;;;;;;;5069907;28;20701;-55
2021/12/27 13:12:13;;;;;;;3.00;2.70;;;;;;;;;;5068896;28;20179;-56
2021/12/27 13:14:40;;;;;;;2.57;2.37;;;;;;;;;;5051982;28;20311;-56
2021/12/27 13:17:14;;;;;;;2.37;2.13;;;;;;;;;;5058607;28;20172;-56
2021/12/27 13:20:02;;;;;;;2.90;2.53;;;;;;;;;;5060330;28;20182;-56
2021/12/27 13:22:38;;;;;;;3.20;2.53;;;;;;;;;;5065116;28;20195;-56
2021/12/27 13:25:04;;;;;;;2.73;2.53;;;;;;;;;;5044966;28;20230;-57
2021/12/27 13:27:31;;;;;;;2.73;2.20;;;;;;;;;;5048294;28;20184;-57
2021/12/27 13:30:13;;;;;;;2.30;1.90;;;;;;;;;;5065476;28;20196;-57
2021/12/27 13:32:40;;;;;;;2.50;2.30;;;;;;;;;;5029690;28;20397;-56
2021/12/27 13:35:06;;;;;;;3.10;2.40;;;;;;;;;;5064647;28;20623;-56
2021/12/27 13:37:36;;;;;;;2.80;2.33;;;;;;;;;;5048414;28;20589;-56
2021/12/27 13:40:07;;;;;;;2.43;2.00;;;;;;;;;;5046373;28;20180;-56
2021/12/27 13:42:33;;;;;;;3.00;2.70;;;;;;;;;;5066405;28;20647;-56
2021/12/27 13:45:09;;;;;;;3.63;2.90;;;;;;;;;;5077181;28;20209;-57
2021/12/27 13:47:35;;;;;;;2.80;2.30;;;;;;;;;;5055201;28;20252;-56
2021/12/27 13:50:02;;;;;;;3.73;2.67;;;;;;;;;;5049587;28;20303;-56
2021/12/27 13:52:28;;;;;;;2.47;2.10;;;;;;;;;;5058165;28;20228;-56
2021/12/27 13:54:54;;;;;;;2.73;2.03;;;;;;;;;;5079984;28;20176;-56
2021/12/27 13:57:31;;;;;;;2.60;2.27;;;;;;;;;;5061232;28;20281;-56
2021/12/27 13:59:57;;;;;;;2.43;2.17;;;;;;;;;;5078460;28;20180;-55
2021/12/27 14:02:23;;;;;;;2.43;2.20;;;;;;;;;;5080959;28;20203;-54
2021/12/27 14:04:59;;;;;;;2.43;2.23;;;;;;;;;;5084776;28;20701;-55
2021/12/27 14:07:25;;;;;;;4.03;2.37;;;;;;;;;;5063152;28;20189;-54
2021/12/27 14:09:52;;;;;;;2.27;2.00;;;;;;;;;;5066973;28;20211;-55
2021/12/27 14:12:23;;;;;;;3.10;2.30;;;;;;;;;;5044690;28;20433;-56
2021/12/27 14:14:51;;;;;;;3.70;2.53;;;;;;;;;;5049614;28;20549;-56
2021/12/27 14:17:18;;;;;;;2.23;2.03;;;;;;;;;;5038143;28;20177;-55
2021/12/27 14:20:08;;;;;;;2.63;2.43;;;;;;;;;;5072428;28;20276;-56
2021/12/27 14:22:39;;;;;;;2.50;2.30;;;;;;;;;;5050644;28;20195;-57
2021/12/27 14:25:05;;;;;;;2.00;1.90;;;;;;;;;;5084841;28;20182;-56
2021/12/27 14:27:34;;;;;;;2.70;2.47;;;;;;;;;;5078793;28;20654;-57
2021/12/27 14:30:03;;;;;;;2.60;2.40;;;;;;;;;;5056990;28;20203;-56
2021/12/27 14:32:29;;;;;;;4.20;2.23;;;;;;;;;;5062376;28;20317;-56
2021/12/27 14:34:56;;;;;;;2.60;2.10;;;;;;;;;;5073806;28;20263;-56
2021/12/27 14:37:23;;;;;;;2.67;2.30;;;;;;;;;;5053288;28;20192;-57
2021/12/27 14:39:49;;;;;;;2.63;2.43;;;;;;;;;;5063810;28;20181;-56
2021/12/27 14:42:17;;;;;;;2.03;1.83;;;;;;;;;;5049721;28;20413;-57
2021/12/27 14:44:44;;;;;;;2.40;2.20;;;;;;;;;;5067040;28;20184;-56
2021/12/27 14:47:11;;;;;;;2.37;2.17;;;;;;;;;;5050776;28;20191;-56